sensor_id;sensor_type;location;lat;lon;timestamp;temperature;humidity
10692;DHT22;5396;50.950;6.988;2023-12-29T00:01:41;10.60;99.90
10692;DHT22;5396;50.950;6.988;2023-12-29T00:04:06;10.60;99.90
10692;DHT22;5396;50.950;6.988;2023-12-29T00:06:32;10.60;99.90
10692;DHT22;5396;50.950;6.988;2023-12-29T00:08:57;10.60;99.90
10692;DHT22;5396;50.950;6.988;2023-12-29T00:11:25;10.60;99.90
10692;DHT22;5396;50.950;6.988;2023-12-29T00:13:50;10.60;99.90
10692;DHT22;5396;50.950;6.988;2023-12-29T00:16:16;10.70;99.90
10692;DHT22;5396;50.950;6.988;2023-12-29T00:18:41;10.60;99.90
10692;DHT22;5396;50.950;6.988;2023-12-29T00:21:07;10.60;99.90
10692;DHT22;5396;50.950;6.988;2023-12-29T00:23:32;10.60;99.90
10692;DHT22;5396;50.950;6.988;2023-12-29T00:25:58;10.70;99.90
10692;DHT22;5396;50.950;6.988;2023-12-29T00:28:23;10.70;99.90
10692;DHT22;5396;50.950;6.988;2023-12-29T00:30:49;10.70;99.90
10692;DHT22;5396;50.950;6.988;2023-12-29T00:33:14;10.70;99.90
10692;DHT22;5396;50.950;6.988;2023-12-29T00:35:40;10.70;99.90
10692;DHT22;5396;50.950;6.988;2023-12-29T00:38:05;10.70;99.90
10692;DHT22;5396;50.950;6.988;2023-12-29T00:40:32;10.70;99.90
10692;DHT22;5396;50.950;6.988;2023-12-29T00:42:57;10.70;99.90
10692;DHT22;5396;50.950;6.988;2023-12-29T00:45:23;10.70;99.90
10692;DHT22;5396;50.950;6.988;2023-12-29T00:47:48;10.70;99.90
10692;DHT22;5396;50.950;6.988;2023-12-29T00:50:16;10.70;99.90
10692;DHT22;5396;50.950;6.988;2023-12-29T00:52:41;10.80;99.90
10692;DHT22;5396;50.950;6.988;2023-12-29T00:55:07;10.90;99.90
10692;DHT22;5396;50.950;6.988;2023-12-29T00:57:32;10.90;99.90
10692;DHT22;5396;50.950;6.988;2023-12-29T00:59:59;11.00;99.90
10692;DHT22;5396;50.950;6.988;2023-12-29T01:02:25;11.00;99.90
10692;DHT22;5396;50.950;6.988;2023-12-29T01:04:50;11.00;99.90
10692;DHT22;5396;50.950;6.988;2023-12-29T01:07:16;11.00;99.90
10692;DHT22;5396;50.950;6.988;2023-12-29T01:09:41;11.10;99.90
10692;DHT22;5396;50.950;6.988;2023-12-29T01:12:06;11.10;99.90
10692;DHT22;5396;50.950;6.988;2023-12-29T01:14:32;11.10;99.90
10692;DHT22;5396;50.950;6.988;2023-12-29T01:16:57;11.10;99.90
10692;DHT22;5396;50.950;6.988;2023-12-29T01:19:23;11.10;99.90
10692;DHT22;5396;50.950;6.988;2023-12-29T01:21:48;11.10;99.90
10692;DHT22;5396;50.950;6.988;2023-12-29T01:24:14;11.10;99.90
10692;DHT22;5396;50.950;6.988;2023-12-29T01:26:40;11.10;99.90
10692;DHT22;5396;50.950;6.988;2023-12-29T01:29:05;11.10;99.90
10692;DHT22;5396;50.950;6.988;2023-12-29T01:31:31;11.00;99.90
10692;DHT22;5396;50.950;6.988;2023-12-29T01:33:57;11.00;99.90
10692;DHT22;5396;50.950;6.988;2023-12-29T01:36:22;11.10;99.90
10692;DHT22;5396;50.950;6.988;2023-12-29T01:38:48;11.00;99.90
10692;DHT22;5396;50.950;6.988;2023-12-29T01:41:14;11.00;99.90
10692;DHT22;5396;50.950;6.988;2023-12-29T01:46:37;11.00;99.90
10692;DHT22;5396;50.950;6.988;2023-12-29T01:49:02;11.00;99.90
10692;DHT22;5396;50.950;6.988;2023-12-29T01:51:28;11.00;99.90
10692;DHT22;5396;50.950;6.988;2023-12-29T01:53:54;11.00;99.90
10692;DHT22;5396;50.950;6.988;2023-12-29T01:56:20;11.00;99.90
10692;DHT22;5396;50.950;6.988;2023-12-29T01:58:48;11.00;99.90
10692;DHT22;5396;50.950;6.988;2023-12-29T02:01:14;11.00;99.90
10692;DHT22;5396;50.950;6.988;2023-12-29T02:03:39;11.00;99.90
10692;DHT22;5396;50.950;6.988;2023-12-29T02:06:05;11.00;99.90
10692;DHT22;5396;50.950;6.988;2023-12-29T02:08:31;11.00;99.90
10692;DHT22;5396;50.950;6.988;2023-12-29T02:10:57;11.00;99.90
10692;DHT22;5396;50.950;6.988;2023-12-29T02:13:22;11.10;99.90
10692;DHT22;5396;50.950;6.988;2023-12-29T02:15:49;11.00;99.90
10692;DHT22;5396;50.950;6.988;2023-12-29T02:18:16;11.10;99.90
10692;DHT22;5396;50.950;6.988;2023-12-29T02:20:43;11.10;99.90
10692;DHT22;5396;50.950;6.988;2023-12-29T02:23:08;11.10;99.90
10692;DHT22;5396;50.950;6.988;2023-12-29T02:25:34;11.10;99.90
10692;DHT22;5396;50.950;6.988;2023-12-29T02:33:01;11.10;99.90
10692;DHT22;5396;50.950;6.988;2023-12-29T02:35:28;11.10;99.90
10692;DHT22;5396;50.950;6.988;2023-12-29T02:37:54;11.20;99.90
10692;DHT22;5396;50.950;6.988;2023-12-29T02:40:20;11.20;99.90
10692;DHT22;5396;50.950;6.988;2023-12-29T02:42:48;11.20;99.90
10692;DHT22;5396;50.950;6.988;2023-12-29T02:45:17;11.20;99.90
10692;DHT22;5396;50.950;6.988;2023-12-29T02:47:43;11.20;99.90
10692;DHT22;5396;50.950;6.988;2023-12-29T02:50:09;11.20;99.90
10692;DHT22;5396;50.950;6.988;2023-12-29T02:52:35;11.30;99.90
10692;DHT22;5396;50.950;6.988;2023-12-29T02:55:03;11.30;99.90
10692;DHT22;5396;50.950;6.988;2023-12-29T02:57:29;11.30;99.90
10692;DHT22;5396;50.950;6.988;2023-12-29T02:59:55;11.30;99.90
10692;DHT22;5396;50.950;6.988;2023-12-29T03:02:21;11.30;99.90
10692;DHT22;5396;50.950;6.988;2023-12-29T03:04:47;11.30;99.90
10692;DHT22;5396;50.950;6.988;2023-12-29T03:07:12;11.30;99.90
10692;DHT22;5396;50.950;6.988;2023-12-29T03:09:39;11.30;99.90
10692;DHT22;5396;50.950;6.988;2023-12-29T03:12:05;11.30;99.90
10692;DHT22;5396;50.950;6.988;2023-12-29T03:14:31;11.30;99.90
10692;DHT22;5396;50.950;6.988;2023-12-29T03:16:56;11.40;99.90
10692;DHT22;5396;50.950;6.988;2023-12-29T03:19:22;11.40;99.90
10692;DHT22;5396;50.950;6.988;2023-12-29T03:21:48;11.50;99.90
10692;DHT22;5396;50.950;6.988;2023-12-29T03:24:13;11.60;99.90
10692;DHT22;5396;50.950;6.988;2023-12-29T03:26:39;11.50;99.90
10692;DHT22;5396;50.950;6.988;2023-12-29T03:29:04;11.50;99.90
10692;DHT22;5396;50.950;6.988;2023-12-29T03:31:30;11.60;99.90
10692;DHT22;5396;50.950;6.988;2023-12-29T03:33:55;11.60;99.90
10692;DHT22;5396;50.950;6.988;2023-12-29T03:36:21;11.60;99.90
10692;DHT22;5396;50.950;6.988;2023-12-29T03:38:46;11.70;99.90
10692;DHT22;5396;50.950;6.988;2023-12-29T03:41:11;11.70;99.90
10692;DHT22;5396;50.950;6.988;2023-12-29T03:43:37;11.70;99.90
10692;DHT22;5396;50.950;6.988;2023-12-29T03:46:02;11.70;99.90
10692;DHT22;5396;50.950;6.988;2023-12-29T03:48:28;11.70;99.90
10692;DHT22;5396;50.950;6.988;2023-12-29T03:50:53;11.70;99.90
10692;DHT22;5396;50.950;6.988;2023-12-29T03:53:19;11.70;99.90
10692;DHT22;5396;50.950;6.988;2023-12-29T03:55:44;11.70;99.90
10692;DHT22;5396;50.950;6.988;2023-12-29T03:58:10;11.70;99.90
10692;DHT22;5396;50.950;6.988;2023-12-29T04:00:36;11.60;99.90
10692;DHT22;5396;50.950;6.988;2023-12-29T04:03:01;11.60;99.90
10692;DHT22;5396;50.950;6.988;2023-12-29T04:05:27;11.60;99.90
10692;DHT22;5396;50.950;6.988;2023-12-29T04:07:52;11.60;99.90
10692;DHT22;5396;50.950;6.988;2023-12-29T04:10:18;11.60;99.90
10692;DHT22;5396;50.950;6.988;2023-12-29T04:12:43;11.60;99.90
10692;DHT22;5396;50.950;6.988;2023-12-29T04:15:09;11.60;99.90
10692;DHT22;5396;50.950;6.988;2023-12-29T04:17:34;11.60;99.90
10692;DHT22;5396;50.950;6.988;2023-12-29T04:20:00;11.60;99.90
10692;DHT22;5396;50.950;6.988;2023-12-29T04:22:25;11.60;99.90
10692;DHT22;5396;50.950;6.988;2023-12-29T04:24:51;11.60;99.90
10692;DHT22;5396;50.950;6.988;2023-12-29T04:27:16;11.60;99.90
10692;DHT22;5396;50.950;6.988;2023-12-29T04:29:43;11.50;99.90
10692;DHT22;5396;50.950;6.988;2023-12-29T04:32:08;11.50;99.90
10692;DHT22;5396;50.950;6.988;2023-12-29T04:34:34;11.50;99.90
10692;DHT22;5396;50.950;6.988;2023-12-29T04:36:59;11.50;99.90
10692;DHT22;5396;50.950;6.988;2023-12-29T04:39:24;11.50;99.90
10692;DHT22;5396;50.950;6.988;2023-12-29T04:41:50;11.50;99.90
10692;DHT22;5396;50.950;6.988;2023-12-29T04:44:15;11.50;99.90
10692;DHT22;5396;50.950;6.988;2023-12-29T04:46:41;11.50;99.90
10692;DHT22;5396;50.950;6.988;2023-12-29T04:49:07;11.50;99.90
10692;DHT22;5396;50.950;6.988;2023-12-29T04:51:33;11.50;99.90
10692;DHT22;5396;50.950;6.988;2023-12-29T04:53:58;11.50;99.90
10692;DHT22;5396;50.950;6.988;2023-12-29T04:56:24;11.50;99.90
10692;DHT22;5396;50.950;6.988;2023-12-29T04:58:50;11.60;99.90
10692;DHT22;5396;50.950;6.988;2023-12-29T05:01:16;11.70;99.90
10692;DHT22;5396;50.950;6.988;2023-12-29T05:03:41;11.70;99.90
10692;DHT22;5396;50.950;6.988;2023-12-29T05:06:07;11.70;99.90
10692;DHT22;5396;50.950;6.988;2023-12-29T05:08:32;11.70;99.90
10692;DHT22;5396;50.950;6.988;2023-12-29T05:10:58;11.70;99.90
10692;DHT22;5396;50.950;6.988;2023-12-29T05:13:23;11.70;99.90
10692;DHT22;5396;50.950;6.988;2023-12-29T05:15:49;11.70;99.90
10692;DHT22;5396;50.950;6.988;2023-12-29T05:18:14;11.70;99.90
10692;DHT22;5396;50.950;6.988;2023-12-29T05:20:39;11.70;99.90
10692;DHT22;5396;50.950;6.988;2023-12-29T05:23:05;11.60;99.90
10692;DHT22;5396;50.950;6.988;2023-12-29T05:25:30;11.60;99.90
10692;DHT22;5396;50.950;6.988;2023-12-29T05:27:56;11.60;99.90
10692;DHT22;5396;50.950;6.988;2023-12-29T05:30:21;11.50;99.90
10692;DHT22;5396;50.950;6.988;2023-12-29T05:32:47;11.50;99.90
10692;DHT22;5396;50.950;6.988;2023-12-29T05:35:12;11.50;99.90
10692;DHT22;5396;50.950;6.988;2023-12-29T05:37:38;11.50;99.90
10692;DHT22;5396;50.950;6.988;2023-12-29T05:40:03;11.40;99.90
10692;DHT22;5396;50.950;6.988;2023-12-29T05:42:29;11.40;99.90
10692;DHT22;5396;50.950;6.988;2023-12-29T05:44:55;11.30;99.90
10692;DHT22;5396;50.950;6.988;2023-12-29T05:47:20;11.30;99.90
10692;DHT22;5396;50.950;6.988;2023-12-29T05:49:46;11.30;99.90
10692;DHT22;5396;50.950;6.988;2023-12-29T05:52:11;11.30;99.90
10692;DHT22;5396;50.950;6.988;2023-12-29T05:54:37;11.30;99.90
10692;DHT22;5396;50.950;6.988;2023-12-29T05:57:02;11.30;99.90
10692;DHT22;5396;50.950;6.988;2023-12-29T05:59:28;11.30;99.90
10692;DHT22;5396;50.950;6.988;2023-12-29T06:01:54;11.20;99.90
10692;DHT22;5396;50.950;6.988;2023-12-29T06:04:19;11.20;99.90
10692;DHT22;5396;50.950;6.988;2023-12-29T06:06:45;11.20;99.90
10692;DHT22;5396;50.950;6.988;2023-12-29T06:09:11;11.20;99.90
10692;DHT22;5396;50.950;6.988;2023-12-29T06:11:37;11.10;99.90
10692;DHT22;5396;50.950;6.988;2023-12-29T06:14:02;11.10;99.90
10692;DHT22;5396;50.950;6.988;2023-12-29T06:16:28;11.10;99.90
10692;DHT22;5396;50.950;6.988;2023-12-29T06:18:55;11.10;99.90
10692;DHT22;5396;50.950;6.988;2023-12-29T06:21:20;11.10;99.90
10692;DHT22;5396;50.950;6.988;2023-12-29T06:23:46;11.10;99.90
10692;DHT22;5396;50.950;6.988;2023-12-29T06:26:18;11.10;99.90
10692;DHT22;5396;50.950;6.988;2023-12-29T06:28:44;11.00;99.90
10692;DHT22;5396;50.950;6.988;2023-12-29T06:31:10;11.00;99.90
10692;DHT22;5396;50.950;6.988;2023-12-29T06:33:36;11.10;99.90
10692;DHT22;5396;50.950;6.988;2023-12-29T06:36:01;11.10;99.90
10692;DHT22;5396;50.950;6.988;2023-12-29T06:38:27;11.10;99.90
10692;DHT22;5396;50.950;6.988;2023-12-29T06:40:52;11.10;99.90
10692;DHT22;5396;50.950;6.988;2023-12-29T06:43:18;11.10;99.90
10692;DHT22;5396;50.950;6.988;2023-12-29T06:45:43;11.00;99.90
10692;DHT22;5396;50.950;6.988;2023-12-29T06:48:09;11.00;99.90
10692;DHT22;5396;50.950;6.988;2023-12-29T06:50:35;11.10;99.90
10692;DHT22;5396;50.950;6.988;2023-12-29T06:53:02;11.10;99.90
10692;DHT22;5396;50.950;6.988;2023-12-29T06:55:27;11.10;99.90
10692;DHT22;5396;50.950;6.988;2023-12-29T06:57:53;11.10;99.90
10692;DHT22;5396;50.950;6.988;2023-12-29T07:00:18;11.20;99.90
10692;DHT22;5396;50.950;6.988;2023-12-29T07:02:44;11.20;99.90
10692;DHT22;5396;50.950;6.988;2023-12-29T07:05:09;11.20;99.90
10692;DHT22;5396;50.950;6.988;2023-12-29T07:07:35;11.20;99.90
10692;DHT22;5396;50.950;6.988;2023-12-29T07:10:03;11.20;99.90
10692;DHT22;5396;50.950;6.988;2023-12-29T07:12:29;11.20;99.90
10692;DHT22;5396;50.950;6.988;2023-12-29T07:14:54;11.20;99.90
10692;DHT22;5396;50.950;6.988;2023-12-29T07:17:20;11.20;99.90
10692;DHT22;5396;50.950;6.988;2023-12-29T07:19:45;11.10;99.90
10692;DHT22;5396;50.950;6.988;2023-12-29T07:22:10;11.10;99.90
10692;DHT22;5396;50.950;6.988;2023-12-29T07:24:36;11.10;99.90
10692;DHT22;5396;50.950;6.988;2023-12-29T07:27:02;11.10;99.90
10692;DHT22;5396;50.950;6.988;2023-12-29T07:29:27;11.10;99.90
10692;DHT22;5396;50.950;6.988;2023-12-29T07:31:53;11.20;99.90
10692;DHT22;5396;50.950;6.988;2023-12-29T07:34:19;11.20;99.90
10692;DHT22;5396;50.950;6.988;2023-12-29T07:36:44;11.20;99.90
10692;DHT22;5396;50.950;6.988;2023-12-29T07:39:10;11.20;99.90
10692;DHT22;5396;50.950;6.988;2023-12-29T07:41:39;11.20;99.90
10692;DHT22;5396;50.950;6.988;2023-12-29T07:44:05;11.20;99.90
10692;DHT22;5396;50.950;6.988;2023-12-29T07:46:30;11.20;99.90
10692;DHT22;5396;50.950;6.988;2023-12-29T07:48:56;11.20;99.90
10692;DHT22;5396;50.950;6.988;2023-12-29T07:51:21;11.20;99.90
10692;DHT22;5396;50.950;6.988;2023-12-29T07:53:47;11.20;99.90
10692;DHT22;5396;50.950;6.988;2023-12-29T07:56:12;11.20;99.90
10692;DHT22;5396;50.950;6.988;2023-12-29T07:58:38;11.20;99.90
10692;DHT22;5396;50.950;6.988;2023-12-29T08:01:04;11.20;99.90
10692;DHT22;5396;50.950;6.988;2023-12-29T08:03:29;11.00;99.90
10692;DHT22;5396;50.950;6.988;2023-12-29T08:05:55;10.90;99.90
10692;DHT22;5396;50.950;6.988;2023-12-29T08:08:20;10.80;99.90
10692;DHT22;5396;50.950;6.988;2023-12-29T08:10:46;10.70;99.90
10692;DHT22;5396;50.950;6.988;2023-12-29T08:13:11;10.50;99.90
10692;DHT22;5396;50.950;6.988;2023-12-29T08:15:37;10.30;99.90
10692;DHT22;5396;50.950;6.988;2023-12-29T08:18:03;10.20;99.90
10692;DHT22;5396;50.950;6.988;2023-12-29T08:20:28;10.10;99.90
10692;DHT22;5396;50.950;6.988;2023-12-29T08:22:55;9.90;99.90
10692;DHT22;5396;50.950;6.988;2023-12-29T08:25:20;9.90;99.90
10692;DHT22;5396;50.950;6.988;2023-12-29T08:27:46;9.80;99.90
10692;DHT22;5396;50.950;6.988;2023-12-29T08:30:11;9.70;99.90
10692;DHT22;5396;50.950;6.988;2023-12-29T08:32:37;9.60;99.90
10692;DHT22;5396;50.950;6.988;2023-12-29T08:35:02;9.50;99.90
10692;DHT22;5396;50.950;6.988;2023-12-29T08:37:28;9.50;99.90
10692;DHT22;5396;50.950;6.988;2023-12-29T08:39:54;9.60;99.90
10692;DHT22;5396;50.950;6.988;2023-12-29T08:42:20;9.60;99.90
10692;DHT22;5396;50.950;6.988;2023-12-29T08:44:46;9.60;99.90
10692;DHT22;5396;50.950;6.988;2023-12-29T08:47:12;9.60;99.90
10692;DHT22;5396;50.950;6.988;2023-12-29T08:49:38;9.50;99.90
10692;DHT22;5396;50.950;6.988;2023-12-29T08:52:06;9.50;99.90
10692;DHT22;5396;50.950;6.988;2023-12-29T08:54:31;9.60;99.90
10692;DHT22;5396;50.950;6.988;2023-12-29T08:56:57;9.50;99.90
10692;DHT22;5396;50.950;6.988;2023-12-29T08:59:22;9.50;99.90
10692;DHT22;5396;50.950;6.988;2023-12-29T09:01:48;9.50;99.90
10692;DHT22;5396;50.950;6.988;2023-12-29T09:04:14;9.50;99.90
10692;DHT22;5396;50.950;6.988;2023-12-29T09:06:39;9.50;99.90
10692;DHT22;5396;50.950;6.988;2023-12-29T09:09:04;9.40;99.90
10692;DHT22;5396;50.950;6.988;2023-12-29T09:11:30;9.40;99.90
10692;DHT22;5396;50.950;6.988;2023-12-29T09:13:55;9.50;99.90
10692;DHT22;5396;50.950;6.988;2023-12-29T09:16:21;9.50;99.90
10692;DHT22;5396;50.950;6.988;2023-12-29T09:18:46;9.50;99.90
10692;DHT22;5396;50.950;6.988;2023-12-29T09:21:12;9.40;99.90
10692;DHT22;5396;50.950;6.988;2023-12-29T09:23:37;9.40;99.90
10692;DHT22;5396;50.950;6.988;2023-12-29T09:26:04;9.50;99.90
10692;DHT22;5396;50.950;6.988;2023-12-29T09:28:33;9.50;99.90
10692;DHT22;5396;50.950;6.988;2023-12-29T09:30:59;9.50;99.90
10692;DHT22;5396;50.950;6.988;2023-12-29T09:33:25;9.60;99.90
10692;DHT22;5396;50.950;6.988;2023-12-29T09:35:51;9.60;99.90
10692;DHT22;5396;50.950;6.988;2023-12-29T09:38:16;9.60;99.90
10692;DHT22;5396;50.950;6.988;2023-12-29T09:40:42;9.60;99.90
10692;DHT22;5396;50.950;6.988;2023-12-29T09:43:07;9.60;99.90
10692;DHT22;5396;50.950;6.988;2023-12-29T09:45:34;9.60;99.90
10692;DHT22;5396;50.950;6.988;2023-12-29T09:48:02;9.70;99.90
10692;DHT22;5396;50.950;6.988;2023-12-29T09:50:30;9.70;99.90
10692;DHT22;5396;50.950;6.988;2023-12-29T09:52:55;9.80;99.90
10692;DHT22;5396;50.950;6.988;2023-12-29T09:55:22;9.80;99.90
10692;DHT22;5396;50.950;6.988;2023-12-29T09:57:49;9.90;99.90
10692;DHT22;5396;50.950;6.988;2023-12-29T10:00:15;9.90;99.90
10692;DHT22;5396;50.950;6.988;2023-12-29T10:02:41;10.00;99.90
10692;DHT22;5396;50.950;6.988;2023-12-29T10:05:07;10.00;99.90
10692;DHT22;5396;50.950;6.988;2023-12-29T10:07:37;10.00;99.90
10692;DHT22;5396;50.950;6.988;2023-12-29T10:10:03;10.10;99.90
10692;DHT22;5396;50.950;6.988;2023-12-29T10:12:29;10.20;99.90
10692;DHT22;5396;50.950;6.988;2023-12-29T10:14:58;10.30;99.90
10692;DHT22;5396;50.950;6.988;2023-12-29T10:17:35;10.40;99.90
10692;DHT22;5396;50.950;6.988;2023-12-29T10:20:05;10.60;99.90
10692;DHT22;5396;50.950;6.988;2023-12-29T10:22:46;10.60;99.90
10692;DHT22;5396;50.950;6.988;2023-12-29T10:25:14;10.60;99.90
10692;DHT22;5396;50.950;6.988;2023-12-29T10:27:39;10.70;99.90
10692;DHT22;5396;50.950;6.988;2023-12-29T10:30:05;10.80;99.90
10692;DHT22;5396;50.950;6.988;2023-12-29T10:32:34;10.90;99.90
10692;DHT22;5396;50.950;6.988;2023-12-29T10:35:10;11.00;99.90
10692;DHT22;5396;50.950;6.988;2023-12-29T10:37:36;11.10;99.90
10692;DHT22;5396;50.950;6.988;2023-12-29T10:40:01;11.10;99.90
10692;DHT22;5396;50.950;6.988;2023-12-29T10:42:27;11.20;99.90
10692;DHT22;5396;50.950;6.988;2023-12-29T10:45:07;11.20;99.90
10692;DHT22;5396;50.950;6.988;2023-12-29T10:47:32;11.20;99.90
10692;DHT22;5396;50.950;6.988;2023-12-29T10:49:59;11.20;99.90
10692;DHT22;5396;50.950;6.988;2023-12-29T10:52:25;11.20;99.90
10692;DHT22;5396;50.950;6.988;2023-12-29T10:54:50;11.30;99.90
10692;DHT22;5396;50.950;6.988;2023-12-29T10:57:31;11.30;99.90
10692;DHT22;5396;50.950;6.988;2023-12-29T10:59:58;11.30;99.90
10692;DHT22;5396;50.950;6.988;2023-12-29T11:02:23;11.40;99.90
10692;DHT22;5396;50.950;6.988;2023-12-29T11:04:49;11.50;99.90
10692;DHT22;5396;50.950;6.988;2023-12-29T11:07:16;11.50;99.90
10692;DHT22;5396;50.950;6.988;2023-12-29T11:09:55;11.50;99.90
10692;DHT22;5396;50.950;6.988;2023-12-29T11:12:25;11.60;99.90
10692;DHT22;5396;50.950;6.988;2023-12-29T11:14:50;11.60;99.90
10692;DHT22;5396;50.950;6.988;2023-12-29T11:17:17;11.70;99.90
10692;DHT22;5396;50.950;6.988;2023-12-29T11:19:45;11.70;99.90
10692;DHT22;5396;50.950;6.988;2023-12-29T11:22:11;11.70;99.90
10692;DHT22;5396;50.950;6.988;2023-12-29T11:24:36;11.80;99.90
10692;DHT22;5396;50.950;6.988;2023-12-29T11:27:02;11.90;99.90
10692;DHT22;5396;50.950;6.988;2023-12-29T11:29:28;12.00;99.90
10692;DHT22;5396;50.950;6.988;2023-12-29T11:31:54;12.10;99.90
10692;DHT22;5396;50.950;6.988;2023-12-29T11:34:35;12.10;99.90
10692;DHT22;5396;50.950;6.988;2023-12-29T11:37:10;12.20;99.90
10692;DHT22;5396;50.950;6.988;2023-12-29T11:39:43;12.30;99.90
10692;DHT22;5396;50.950;6.988;2023-12-29T11:42:21;12.40;99.90
10692;DHT22;5396;50.950;6.988;2023-12-29T11:44:48;12.50;99.90
10692;DHT22;5396;50.950;6.988;2023-12-29T11:49:59;12.50;99.90
10692;DHT22;5396;50.950;6.988;2023-12-29T11:55:12;12.60;99.90
10692;DHT22;5396;50.950;6.988;2023-12-29T11:57:38;12.60;99.90
10692;DHT22;5396;50.950;6.988;2023-12-29T12:00:05;12.50;99.90
10692;DHT22;5396;50.950;6.988;2023-12-29T12:02:34;12.50;99.90
10692;DHT22;5396;50.950;6.988;2023-12-29T12:05:00;12.50;99.90
10692;DHT22;5396;50.950;6.988;2023-12-29T12:09:52;12.40;99.90
10692;DHT22;5396;50.950;6.988;2023-12-29T12:12:38;12.40;99.90
10692;DHT22;5396;50.950;6.988;2023-12-29T12:15:03;12.30;99.90
10692;DHT22;5396;50.950;6.988;2023-12-29T12:17:30;12.40;99.90
10692;DHT22;5396;50.950;6.988;2023-12-29T12:20:03;12.40;99.90
10692;DHT22;5396;50.950;6.988;2023-12-29T12:22:30;12.40;99.90
10692;DHT22;5396;50.950;6.988;2023-12-29T12:24:56;12.50;99.90
10692;DHT22;5396;50.950;6.988;2023-12-29T12:27:23;12.50;99.90
10692;DHT22;5396;50.950;6.988;2023-12-29T12:29:52;12.30;99.90
10692;DHT22;5396;50.950;6.988;2023-12-29T12:32:21;12.30;99.90
10692;DHT22;5396;50.950;6.988;2023-12-29T12:34:47;12.30;99.90
10692;DHT22;5396;50.950;6.988;2023-12-29T12:37:12;12.30;99.90
10692;DHT22;5396;50.950;6.988;2023-12-29T12:39:43;12.30;99.90
10692;DHT22;5396;50.950;6.988;2023-12-29T12:42:09;12.40;99.90
10692;DHT22;5396;50.950;6.988;2023-12-29T12:44:34;12.40;99.90
10692;DHT22;5396;50.950;6.988;2023-12-29T12:47:06;12.40;99.90
10692;DHT22;5396;50.950;6.988;2023-12-29T12:49:31;12.40;99.90
10692;DHT22;5396;50.950;6.988;2023-12-29T12:51:57;12.40;99.90
10692;DHT22;5396;50.950;6.988;2023-12-29T12:54:22;12.40;99.90
10692;DHT22;5396;50.950;6.988;2023-12-29T12:56:48;12.40;99.90
10692;DHT22;5396;50.950;6.988;2023-12-29T12:59:14;12.40;99.90
10692;DHT22;5396;50.950;6.988;2023-12-29T13:01:40;12.40;99.90
10692;DHT22;5396;50.950;6.988;2023-12-29T13:04:06;12.40;99.90
10692;DHT22;5396;50.950;6.988;2023-12-29T13:06:32;12.40;99.90
10692;DHT22;5396;50.950;6.988;2023-12-29T13:08:58;12.40;99.90
10692;DHT22;5396;50.950;6.988;2023-12-29T13:11:24;12.40;99.90
10692;DHT22;5396;50.950;6.988;2023-12-29T13:13:52;12.40;99.90
10692;DHT22;5396;50.950;6.988;2023-12-29T13:16:32;12.40;99.90
10692;DHT22;5396;50.950;6.988;2023-12-29T13:19:14;12.40;99.90
10692;DHT22;5396;50.950;6.988;2023-12-29T13:21:39;12.40;99.90
10692;DHT22;5396;50.950;6.988;2023-12-29T13:24:05;12.40;99.90
10692;DHT22;5396;50.950;6.988;2023-12-29T13:26:30;12.40;99.90
10692;DHT22;5396;50.950;6.988;2023-12-29T13:28:56;12.40;99.90
10692;DHT22;5396;50.950;6.988;2023-12-29T13:31:21;12.30;99.90
10692;DHT22;5396;50.950;6.988;2023-12-29T13:33:51;12.30;99.90
10692;DHT22;5396;50.950;6.988;2023-12-29T13:36:42;12.40;99.90
10692;DHT22;5396;50.950;6.988;2023-12-29T13:39:09;12.40;99.90
10692;DHT22;5396;50.950;6.988;2023-12-29T13:41:36;12.40;99.90
10692;DHT22;5396;50.950;6.988;2023-12-29T13:44:02;12.40;99.90
10692;DHT22;5396;50.950;6.988;2023-12-29T13:46:28;12.30;99.90
10692;DHT22;5396;50.950;6.988;2023-12-29T13:48:54;12.30;99.90
10692;DHT22;5396;50.950;6.988;2023-12-29T13:51:25;12.30;99.90
10692;DHT22;5396;50.950;6.988;2023-12-29T13:54:00;12.30;99.90
10692;DHT22;5396;50.950;6.988;2023-12-29T13:56:26;12.30;99.90
10692;DHT22;5396;50.950;6.988;2023-12-29T13:58:52;12.30;99.90
10692;DHT22;5396;50.950;6.988;2023-12-29T14:01:17;12.20;99.90
10692;DHT22;5396;50.950;6.988;2023-12-29T14:03:46;12.20;99.90
10692;DHT22;5396;50.950;6.988;2023-12-29T14:06:12;12.20;99.90
10692;DHT22;5396;50.950;6.988;2023-12-29T14:08:45;12.10;99.90
10692;DHT22;5396;50.950;6.988;2023-12-29T14:11:11;11.90;99.90
10692;DHT22;5396;50.950;6.988;2023-12-29T14:13:44;11.60;99.90
10692;DHT22;5396;50.950;6.988;2023-12-29T14:16:10;11.40;99.90
10692;DHT22;5396;50.950;6.988;2023-12-29T14:24:11;10.80;99.90
10692;DHT22;5396;50.950;6.988;2023-12-29T14:26:41;10.60;99.90
10692;DHT22;5396;50.950;6.988;2023-12-29T14:29:10;10.60;99.90
10692;DHT22;5396;50.950;6.988;2023-12-29T14:31:37;10.60;99.90
10692;DHT22;5396;50.950;6.988;2023-12-29T14:34:03;10.50;99.90
10692;DHT22;5396;50.950;6.988;2023-12-29T14:36:29;10.40;99.90
10692;DHT22;5396;50.950;6.988;2023-12-29T14:38:55;10.40;99.90
10692;DHT22;5396;50.950;6.988;2023-12-29T14:41:21;10.40;99.90
10692;DHT22;5396;50.950;6.988;2023-12-29T14:43:46;10.40;99.90
10692;DHT22;5396;50.950;6.988;2023-12-29T14:46:11;10.40;99.90
10692;DHT22;5396;50.950;6.988;2023-12-29T14:48:37;10.40;99.90
10692;DHT22;5396;50.950;6.988;2023-12-29T14:51:04;10.40;99.90
10692;DHT22;5396;50.950;6.988;2023-12-29T14:53:29;10.40;99.90
10692;DHT22;5396;50.950;6.988;2023-12-29T14:55:55;10.50;99.90
10692;DHT22;5396;50.950;6.988;2023-12-29T14:58:20;10.40;99.90
10692;DHT22;5396;50.950;6.988;2023-12-29T15:00:46;10.40;99.90
10692;DHT22;5396;50.950;6.988;2023-12-29T15:03:12;10.40;99.90
10692;DHT22;5396;50.950;6.988;2023-12-29T15:05:40;10.50;99.90
10692;DHT22;5396;50.950;6.988;2023-12-29T15:08:06;10.50;99.90
10692;DHT22;5396;50.950;6.988;2023-12-29T15:10:31;10.50;99.90
10692;DHT22;5396;50.950;6.988;2023-12-29T15:12:57;10.60;99.90
10692;DHT22;5396;50.950;6.988;2023-12-29T15:15:24;10.60;99.90
10692;DHT22;5396;50.950;6.988;2023-12-29T15:17:51;10.70;99.90
10692;DHT22;5396;50.950;6.988;2023-12-29T15:20:20;10.60;99.90
10692;DHT22;5396;50.950;6.988;2023-12-29T15:22:46;10.70;99.90
10692;DHT22;5396;50.950;6.988;2023-12-29T15:25:11;10.70;99.90
10692;DHT22;5396;50.950;6.988;2023-12-29T15:27:37;10.70;99.90
10692;DHT22;5396;50.950;6.988;2023-12-29T15:30:02;10.80;99.90
10692;DHT22;5396;50.950;6.988;2023-12-29T15:32:28;10.80;99.90
10692;DHT22;5396;50.950;6.988;2023-12-29T15:34:53;10.80;99.90
10692;DHT22;5396;50.950;6.988;2023-12-29T15:37:19;10.90;99.90
10692;DHT22;5396;50.950;6.988;2023-12-29T15:39:47;10.90;99.90
10692;DHT22;5396;50.950;6.988;2023-12-29T15:42:16;11.00;99.90
10692;DHT22;5396;50.950;6.988;2023-12-29T15:44:41;11.00;99.90
10692;DHT22;5396;50.950;6.988;2023-12-29T15:47:07;10.80;99.90
10692;DHT22;5396;50.950;6.988;2023-12-29T15:49:32;10.70;99.90
10692;DHT22;5396;50.950;6.988;2023-12-29T15:51:58;10.70;99.90
10692;DHT22;5396;50.950;6.988;2023-12-29T15:54:26;10.60;99.90
10692;DHT22;5396;50.950;6.988;2023-12-29T15:56:53;10.60;99.90
10692;DHT22;5396;50.950;6.988;2023-12-29T15:59:19;10.60;99.90
10692;DHT22;5396;50.950;6.988;2023-12-29T16:01:45;10.60;99.90
10692;DHT22;5396;50.950;6.988;2023-12-29T16:04:10;10.60;99.90